sensor_id;sensor_type;location;lat;lon;timestamp;pressure;altitude;pressure_sealevel;temperature;humidity
55604;BME280;41468;48.838;9.330;2022-07-04T00:00:35;98469.25;;;20.75;64.23
55604;BME280;41468;48.838;9.330;2022-07-04T00:03:05;98478.28;;;20.79;64.45
55604;BME280;41468;48.838;9.330;2022-07-04T00:05:36;98486.28;;;20.77;64.82
55604;BME280;41468;48.838;9.330;2022-07-04T00:08:06;98473.19;;;20.90;63.82
55604;BME280;41468;48.838;9.330;2022-07-04T00:10:38;98471.63;;;20.89;64.26
55604;BME280;41468;48.838;9.330;2022-07-04T00:13:08;98476.97;;;20.96;63.56
55604;BME280;41468;48.838;9.330;2022-07-04T00:15:38;98463.81;;;20.84;64.47
55604;BME280;41468;48.838;9.330;2022-07-04T00:18:08;98458.25;;;20.84;63.99
55604;BME280;41468;48.838;9.330;2022-07-04T00:20:37;98451.16;;;20.83;64.46
55604;BME280;41468;48.838;9.330;2022-07-04T00:23:07;98453.09;;;20.70;65.85
55604;BME280;41468;48.838;9.330;2022-07-04T00:25:40;98453.63;;;20.65;64.91
55604;BME280;41468;48.838;9.330;2022-07-04T00:28:10;98446.97;;;20.62;64.83
55604;BME280;41468;48.838;9.330;2022-07-04T00:30:40;98438.84;;;20.55;65.72
55604;BME280;41468;48.838;9.330;2022-07-04T00:33:13;98441.50;;;20.58;65.11
55604;BME280;41468;48.838;9.330;2022-07-04T00:35:43;98446.59;;;20.47;65.76
55604;BME280;41468;48.838;9.330;2022-07-04T00:38:12;98448.91;;;20.49;66.17
55604;BME280;41468;48.838;9.330;2022-07-04T00:40:45;98446.47;;;20.51;65.78
55604;BME280;41468;48.838;9.330;2022-07-04T00:43:21;98447.34;;;20.48;65.91
55604;BME280;41468;48.838;9.330;2022-07-04T00:45:52;98447.47;;;20.44;65.94
55604;BME280;41468;48.838;9.330;2022-07-04T00:48:21;98445.34;;;20.48;66.38
55604;BME280;41468;48.838;9.330;2022-07-04T00:50:52;98461.31;;;20.60;65.41
55604;BME280;41468;48.838;9.330;2022-07-04T00:53:22;98464.13;;;20.44;65.57
55604;BME280;41468;48.838;9.330;2022-07-04T00:55:55;98457.88;;;20.40;65.82
55604;BME280;41468;48.838;9.330;2022-07-04T00:58:25;98465.69;;;20.45;66.30
55604;BME280;41468;48.838;9.330;2022-07-04T01:00:54;98465.84;;;20.38;65.95
55604;BME280;41468;48.838;9.330;2022-07-04T01:03:24;98472.25;;;20.35;65.53
55604;BME280;41468;48.838;9.330;2022-07-04T01:05:55;98466.88;;;20.28;66.54
55604;BME280;41468;48.838;9.330;2022-07-04T01:08:25;98463.94;;;20.35;66.66
55604;BME280;41468;48.838;9.330;2022-07-04T01:10:58;98462.44;;;20.30;66.39
55604;BME280;41468;48.838;9.330;2022-07-04T01:13:28;98459.94;;;20.36;65.98
55604;BME280;41468;48.838;9.330;2022-07-04T01:15:58;98471.06;;;20.36;66.23
55604;BME280;41468;48.838;9.330;2022-07-04T01:18:28;98469.47;;;20.35;66.62
55604;BME280;41468;48.838;9.330;2022-07-04T01:21:01;98468.44;;;20.45;65.84
55604;BME280;41468;48.838;9.330;2022-07-04T01:23:31;98472.44;;;20.28;66.49
55604;BME280;41468;48.838;9.330;2022-07-04T01:26:02;98465.78;;;20.42;66.09
55604;BME280;41468;48.838;9.330;2022-07-04T01:28:32;98460.13;;;20.45;65.03
55604;BME280;41468;48.838;9.330;2022-07-04T01:31:02;98461.59;;;20.33;66.46
55604;BME280;41468;48.838;9.330;2022-07-04T01:33:32;98470.72;;;20.34;66.64
55604;BME280;41468;48.838;9.330;2022-07-04T01:36:05;98471.47;;;20.34;66.39
55604;BME280;41468;48.838;9.330;2022-07-04T01:38:35;98476.34;;;20.30;66.71
55604;BME280;41468;48.838;9.330;2022-07-04T01:41:05;98478.59;;;20.19;66.85
55604;BME280;41468;48.838;9.330;2022-07-04T01:43:34;98481.47;;;20.15;67.03
55604;BME280;41468;48.838;9.330;2022-07-04T01:46:04;98477.22;;;20.27;66.91
55604;BME280;41468;48.838;9.330;2022-07-04T01:48:34;98469.66;;;20.11;67.21
55604;BME280;41468;48.838;9.330;2022-07-04T01:51:07;98476.88;;;20.09;67.37
55604;BME280;41468;48.838;9.330;2022-07-04T01:53:37;98483.28;;;20.06;68.03
55604;BME280;41468;48.838;9.330;2022-07-04T01:56:06;98480.88;;;20.08;67.84
55604;BME280;41468;48.838;9.330;2022-07-04T01:58:36;98489.97;;;20.08;67.16
55604;BME280;41468;48.838;9.330;2022-07-04T02:01:06;98487.03;;;20.15;67.31
55604;BME280;41468;48.838;9.330;2022-07-04T02:03:48;98493.09;;;20.10;68.17
55604;BME280;41468;48.838;9.330;2022-07-04T02:06:21;98502.81;;;20.02;68.10
55604;BME280;41468;48.838;9.330;2022-07-04T02:08:51;98496.16;;;20.00;67.80
55604;BME280;41468;48.838;9.330;2022-07-04T02:11:33;98502.22;;;19.94;67.62
55604;BME280;41468;48.838;9.330;2022-07-04T02:14:15;98503.50;;;20.06;66.89
55604;BME280;41468;48.838;9.330;2022-07-04T02:16:45;98508.22;;;19.93;66.80
55604;BME280;41468;48.838;9.330;2022-07-04T02:19:15;98511.31;;;19.95;67.23
55604;BME280;41468;48.838;9.330;2022-07-04T02:21:48;98519.56;;;19.99;66.50
55604;BME280;41468;48.838;9.330;2022-07-04T02:24:18;98523.38;;;19.88;67.05
55604;BME280;41468;48.838;9.330;2022-07-04T02:26:48;98520.84;;;19.78;67.51
55604;BME280;41468;48.838;9.330;2022-07-04T02:29:18;98523.25;;;19.76;67.47
55604;BME280;41468;48.838;9.330;2022-07-04T02:31:48;98525.34;;;19.71;68.46
55604;BME280;41468;48.838;9.330;2022-07-04T02:34:18;98518.94;;;19.74;67.61
55604;BME280;41468;48.838;9.330;2022-07-04T02:36:50;98521.19;;;19.80;66.88
55604;BME280;41468;48.838;9.330;2022-07-04T02:39:20;98520.94;;;19.74;67.41
55604;BME280;41468;48.838;9.330;2022-07-04T02:41:51;98533.56;;;19.59;68.48
55604;BME280;41468;48.838;9.330;2022-07-04T02:44:22;98537.09;;;19.59;68.00
55604;BME280;41468;48.838;9.330;2022-07-04T02:46:52;98547.69;;;19.64;68.25
55604;BME280;41468;48.838;9.330;2022-07-04T02:49:22;98538.94;;;19.66;67.66
55604;BME280;41468;48.838;9.330;2022-07-04T02:51:55;98530.53;;;19.49;68.59
55604;BME280;41468;48.838;9.330;2022-07-04T02:54:25;98543.88;;;19.58;67.79
55604;BME280;41468;48.838;9.330;2022-07-04T02:56:54;98551.91;;;19.52;68.21
55604;BME280;41468;48.838;9.330;2022-07-04T02:59:24;98552.72;;;19.49;68.53
55604;BME280;41468;48.838;9.330;2022-07-04T03:01:54;98552.44;;;19.44;68.54
55604;BME280;41468;48.838;9.330;2022-07-04T03:04:24;98560.84;;;19.40;68.95
55604;BME280;41468;48.838;9.330;2022-07-04T03:06:57;98556.50;;;19.19;69.76
55604;BME280;41468;48.838;9.330;2022-07-04T03:09:26;98557.38;;;19.16;70.36
55604;BME280;41468;48.838;9.330;2022-07-04T03:11:56;98561.47;;;19.28;68.53
55604;BME280;41468;48.838;9.330;2022-07-04T03:14:26;98563.72;;;19.37;68.37
55604;BME280;41468;48.838;9.330;2022-07-04T03:16:56;98579.25;;;19.30;68.49
55604;BME280;41468;48.838;9.330;2022-07-04T03:19:26;98563.06;;;19.29;68.33
55604;BME280;41468;48.838;9.330;2022-07-04T03:21:58;98572.28;;;19.22;68.36
55604;BME280;41468;48.838;9.330;2022-07-04T03:24:28;98566.06;;;19.18;68.72
55604;BME280;41468;48.838;9.330;2022-07-04T03:26:58;98562.63;;;19.30;68.11
55604;BME280;41468;48.838;9.330;2022-07-04T03:29:27;98564.13;;;19.35;67.46
55604;BME280;41468;48.838;9.330;2022-07-04T03:31:57;98571.03;;;19.27;68.54
55604;BME280;41468;48.838;9.330;2022-07-04T03:34:27;98566.25;;;19.07;69.58
55604;BME280;41468;48.838;9.330;2022-07-04T03:36:59;98573.47;;;19.01;70.06
55604;BME280;41468;48.838;9.330;2022-07-04T03:39:29;98568.47;;;19.16;69.59
55604;BME280;41468;48.838;9.330;2022-07-04T03:41:59;98572.53;;;19.32;68.94
55604;BME280;41468;48.838;9.330;2022-07-04T03:44:29;98588.78;;;19.29;69.35
55604;BME280;41468;48.838;9.330;2022-07-04T03:46:58;98586.50;;;19.04;70.52
55604;BME280;41468;48.838;9.330;2022-07-04T03:49:28;98588.56;;;19.00;71.56
55604;BME280;41468;48.838;9.330;2022-07-04T03:52:00;98587.66;;;19.07;70.79
55604;BME280;41468;48.838;9.330;2022-07-04T03:54:30;98584.94;;;19.03;71.63
55604;BME280;41468;48.838;9.330;2022-07-04T03:57:00;98579.94;;;18.95;72.13
55604;BME280;41468;48.838;9.330;2022-07-04T03:59:30;98579.84;;;18.78;73.38
55604;BME280;41468;48.838;9.330;2022-07-04T04:01:59;98590.72;;;18.65;73.25
55604;BME280;41468;48.838;9.330;2022-07-04T04:04:29;98590.38;;;18.87;71.92
55604;BME280;41468;48.838;9.330;2022-07-04T04:07:15;98585.63;;;18.88;73.13
55604;BME280;41468;48.838;9.330;2022-07-04T04:09:45;98594.84;;;18.81;72.77
55604;BME280;41468;48.838;9.330;2022-07-04T04:12:14;98592.00;;;18.84;72.91
55604;BME280;41468;48.838;9.330;2022-07-04T04:14:44;98597.19;;;18.82;72.35
55604;BME280;41468;48.838;9.330;2022-07-04T04:17:15;98589.50;;;18.70;72.75
55604;BME280;41468;48.838;9.330;2022-07-04T04:19:45;98598.03;;;18.56;72.55
55604;BME280;41468;48.838;9.330;2022-07-04T04:22:17;98597.81;;;18.70;72.60
55604;BME280;41468;48.838;9.330;2022-07-04T04:24:47;98608.88;;;18.70;73.42
55604;BME280;41468;48.838;9.330;2022-07-04T04:27:17;98604.91;;;18.71;73.10
55604;BME280;41468;48.838;9.330;2022-07-04T04:29:46;98607.31;;;18.69;72.86
55604;BME280;41468;48.838;9.330;2022-07-04T04:32:16;98607.75;;;18.68;73.71
55604;BME280;41468;48.838;9.330;2022-07-04T04:34:46;98622.38;;;18.68;74.29
55604;BME280;41468;48.838;9.330;2022-07-04T04:37:18;98629.13;;;18.67;74.59
55604;BME280;41468;48.838;9.330;2022-07-04T04:39:48;98629.91;;;18.68;73.50
55604;BME280;41468;48.838;9.330;2022-07-04T04:42:18;98637.44;;;18.63;73.45
55604;BME280;41468;48.838;9.330;2022-07-04T04:44:48;98636.66;;;18.67;73.26
55604;BME280;41468;48.838;9.330;2022-07-04T04:47:18;98628.69;;;18.69;72.85
55604;BME280;41468;48.838;9.330;2022-07-04T04:49:48;98647.22;;;18.72;72.39
55604;BME280;41468;48.838;9.330;2022-07-04T04:52:21;98651.38;;;18.60;73.32
55604;BME280;41468;48.838;9.330;2022-07-04T04:54:50;98653.28;;;18.63;72.56
55604;BME280;41468;48.838;9.330;2022-07-04T04:57:20;98656.34;;;18.72;72.22
55604;BME280;41468;48.838;9.330;2022-07-04T04:59:50;98664.28;;;18.70;72.12
55604;BME280;41468;48.838;9.330;2022-07-04T05:02:21;98662.25;;;18.74;72.06
55604;BME280;41468;48.838;9.330;2022-07-04T05:04:51;98662.91;;;18.82;71.23
55604;BME280;41468;48.838;9.330;2022-07-04T05:07:23;98663.94;;;18.92;70.91
55604;BME280;41468;48.838;9.330;2022-07-04T05:09:53;98664.53;;;19.03;71.14
55604;BME280;41468;48.838;9.330;2022-07-04T05:12:26;98663.56;;;19.13;70.69
55604;BME280;41468;48.838;9.330;2022-07-04T05:14:56;98670.38;;;19.08;70.25
55604;BME280;41468;48.838;9.330;2022-07-04T05:17:26;98666.91;;;19.04;70.42
55604;BME280;41468;48.838;9.330;2022-07-04T05:19:56;98665.75;;;19.02;70.84
55604;BME280;41468;48.838;9.330;2022-07-04T05:22:28;98673.22;;;19.05;70.71
55604;BME280;41468;48.838;9.330;2022-07-04T05:24:58;98673.22;;;19.05;70.70
55604;BME280;41468;48.838;9.330;2022-07-04T05:27:28;98679.25;;;19.00;71.29
55604;BME280;41468;48.838;9.330;2022-07-04T05:29:59;98669.84;;;18.94;71.54
55604;BME280;41468;48.838;9.330;2022-07-04T05:32:29;98665.09;;;18.94;71.95
55604;BME280;41468;48.838;9.330;2022-07-04T05:34:59;98672.25;;;19.15;70.06
55604;BME280;41468;48.838;9.330;2022-07-04T05:37:31;98669.66;;;19.48;69.14
55604;BME280;41468;48.838;9.330;2022-07-04T05:40:02;98671.44;;;20.34;65.65
55604;BME280;41468;48.838;9.330;2022-07-04T05:42:33;98660.09;;;21.27;62.62
55604;BME280;41468;48.838;9.330;2022-07-04T05:45:04;98663.50;;;22.19;59.75
55604;BME280;41468;48.838;9.330;2022-07-04T05:47:34;98670.03;;;23.01;56.85
55604;BME280;41468;48.838;9.330;2022-07-04T05:50:05;98665.09;;;24.06;53.86
55604;BME280;41468;48.838;9.330;2022-07-04T05:52:39;98675.47;;;25.27;50.79
55604;BME280;41468;48.838;9.330;2022-07-04T05:55:09;98659.31;;;26.38;47.71
55604;BME280;41468;48.838;9.330;2022-07-04T05:57:39;98656.03;;;26.73;45.94
55604;BME280;41468;48.838;9.330;2022-07-04T06:00:12;98662.69;;;26.51;46.79
55604;BME280;41468;48.838;9.330;2022-07-04T06:02:42;98665.31;;;25.94;48.25
55604;BME280;41468;48.838;9.330;2022-07-04T06:05:12;98665.78;;;24.91;50.11
55604;BME280;41468;48.838;9.330;2022-07-04T06:07:44;98665.44;;;24.08;52.16
55604;BME280;41468;48.838;9.330;2022-07-04T06:10:15;98663.44;;;23.43;54.26
55604;BME280;41468;48.838;9.330;2022-07-04T06:12:44;98664.78;;;23.03;55.33
55604;BME280;41468;48.838;9.330;2022-07-04T06:15:14;98654.59;;;22.62;56.11
55604;BME280;41468;48.838;9.330;2022-07-04T06:17:44;98656.34;;;22.18;57.69
55604;BME280;41468;48.838;9.330;2022-07-04T06:20:14;98648.88;;;22.02;57.89
55604;BME280;41468;48.838;9.330;2022-07-04T06:22:48;98650.50;;;21.86;59.55
55604;BME280;41468;48.838;9.330;2022-07-04T06:25:19;98653.59;;;21.76;60.11
55604;BME280;41468;48.838;9.330;2022-07-04T06:27:50;98651.56;;;21.63;60.51
55604;BME280;41468;48.838;9.330;2022-07-04T06:30:20;98649.59;;;21.47;61.22
55604;BME280;41468;48.838;9.330;2022-07-04T06:32:50;98655.03;;;21.38;61.45
55604;BME280;41468;48.838;9.330;2022-07-04T06:35:22;98671.81;;;21.35;62.10
55604;BME280;41468;48.838;9.330;2022-07-04T06:38:07;98662.34;;;21.32;61.29
55604;BME280;41468;48.838;9.330;2022-07-04T06:40:37;98670.25;;;21.34;61.72
55604;BME280;41468;48.838;9.330;2022-07-04T06:43:08;98666.25;;;21.35;63.08
55604;BME280;41468;48.838;9.330;2022-07-04T06:45:37;98666.84;;;21.42;62.41
55604;BME280;41468;48.838;9.330;2022-07-04T06:48:07;98663.66;;;21.57;62.39
55604;BME280;41468;48.838;9.330;2022-07-04T06:50:43;98665.34;;;21.54;62.11
55604;BME280;41468;48.838;9.330;2022-07-04T06:53:15;98670.09;;;21.54;62.23
55604;BME280;41468;48.838;9.330;2022-07-04T06:55:45;98670.22;;;21.50;61.06
55604;BME280;41468;48.838;9.330;2022-07-04T06:58:15;98677.84;;;21.62;62.65
55604;BME280;41468;48.838;9.330;2022-07-04T07:00:45;98675.06;;;21.62;62.89
55604;BME280;41468;48.838;9.330;2022-07-04T07:03:15;98670.59;;;21.65;62.21
55604;BME280;41468;48.838;9.330;2022-07-04T07:05:45;98670.50;;;21.68;62.61
55604;BME280;41468;48.838;9.330;2022-07-04T07:08:33;98670.69;;;21.61;60.00
55604;BME280;41468;48.838;9.330;2022-07-04T07:11:02;98663.09;;;21.49;62.02
55604;BME280;41468;48.838;9.330;2022-07-04T07:13:45;98662.22;;;21.52;62.03
55604;BME280;41468;48.838;9.330;2022-07-04T07:16:17;98661.50;;;21.48;61.86
55604;BME280;41468;48.838;9.330;2022-07-04T07:18:47;98653.63;;;21.46;62.81
55604;BME280;41468;48.838;9.330;2022-07-04T07:21:18;98654.16;;;21.41;62.60
55604;BME280;41468;48.838;9.330;2022-07-04T07:23:51;98656.16;;;21.41;63.12
55604;BME280;41468;48.838;9.330;2022-07-04T07:26:20;98655.16;;;21.47;62.66
55604;BME280;41468;48.838;9.330;2022-07-04T07:28:50;98658.97;;;21.54;61.51
55604;BME280;41468;48.838;9.330;2022-07-04T07:31:20;98640.84;;;21.49;61.62
55604;BME280;41468;48.838;9.330;2022-07-04T07:33:50;98639.09;;;21.68;61.97
55604;BME280;41468;48.838;9.330;2022-07-04T07:36:19;98626.84;;;21.65;61.86
55604;BME280;41468;48.838;9.330;2022-07-04T07:38:52;98632.19;;;21.60;61.13
55604;BME280;41468;48.838;9.330;2022-07-04T07:41:22;98636.16;;;21.59;61.18
55604;BME280;41468;48.838;9.330;2022-07-04T07:43:52;98636.13;;;21.46;61.81
55604;BME280;41468;48.838;9.330;2022-07-04T07:46:22;98633.81;;;21.44;61.63
55604;BME280;41468;48.838;9.330;2022-07-04T07:48:52;98631.44;;;21.43;60.99
55604;BME280;41468;48.838;9.330;2022-07-04T07:51:22;98629.91;;;21.42;61.22
55604;BME280;41468;48.838;9.330;2022-07-04T07:53:55;98634.69;;;21.41;61.57
55604;BME280;41468;48.838;9.330;2022-07-04T07:56:45;98623.09;;;21.43;61.58
55604;BME280;41468;48.838;9.330;2022-07-04T07:59:14;98633.03;;;21.57;62.21
55604;BME280;41468;48.838;9.330;2022-07-04T08:01:45;98633.94;;;21.54;62.77
55604;BME280;41468;48.838;9.330;2022-07-04T08:04:17;98621.25;;;21.53;63.17
55604;BME280;41468;48.838;9.330;2022-07-04T08:06:59;98629.06;;;21.58;62.69
55604;BME280;41468;48.838;9.330;2022-07-04T08:09:50;98632.50;;;21.62;62.79
55604;BME280;41468;48.838;9.330;2022-07-04T08:12:20;98631.72;;;21.61;63.85
55604;BME280;41468;48.838;9.330;2022-07-04T08:14:50;98630.06;;;21.64;62.13
55604;BME280;41468;48.838;9.330;2022-07-04T08:17:20;98624.59;;;21.60;62.12
55604;BME280;41468;48.838;9.330;2022-07-04T08:19:50;98621.72;;;21.64;62.83
55604;BME280;41468;48.838;9.330;2022-07-04T08:22:20;98616.94;;;21.64;62.03
55604;BME280;41468;48.838;9.330;2022-07-04T08:24:52;98616.03;;;21.67;63.35
55604;BME280;41468;48.838;9.330;2022-07-04T08:27:22;98610.94;;;21.66;63.04
55604;BME280;41468;48.838;9.330;2022-07-04T08:29:58;98609.81;;;21.63;63.70
55604;BME280;41468;48.838;9.330;2022-07-04T08:32:28;98606.91;;;21.67;63.00
55604;BME280;41468;48.838;9.330;2022-07-04T08:34:58;98605.00;;;21.64;63.21
55604;BME280;41468;48.838;9.330;2022-07-04T08:37:28;98606.91;;;21.67;62.18
55604;BME280;41468;48.838;9.330;2022-07-04T08:40:00;98613.03;;;21.62;62.79
55604;BME280;41468;48.838;9.330;2022-07-04T08:42:36;98618.50;;;21.65;63.67
55604;BME280;41468;48.838;9.330;2022-07-04T08:45:08;98616.97;;;21.77;62.63
55604;BME280;41468;48.838;9.330;2022-07-04T08:47:39;98619.97;;;21.83;62.46
55604;BME280;41468;48.838;9.330;2022-07-04T08:50:12;98620.44;;;21.81;61.95
55604;BME280;41468;48.838;9.330;2022-07-04T08:52:52;98619.31;;;21.91;62.10
55604;BME280;41468;48.838;9.330;2022-07-04T08:55:26;98611.56;;;21.99;62.86
55604;BME280;41468;48.838;9.330;2022-07-04T08:58:10;98621.72;;;22.06;62.34
55604;BME280;41468;48.838;9.330;2022-07-04T09:00:57;98621.03;;;22.14;61.68
55604;BME280;41468;48.838;9.330;2022-07-04T09:03:28;98618.59;;;22.29;62.31
55604;BME280;41468;48.838;9.330;2022-07-04T09:05:58;98619.38;;;22.30;60.25
55604;BME280;41468;48.838;9.330;2022-07-04T09:08:28;98624.06;;;22.33;60.47
55604;BME280;41468;48.838;9.330;2022-07-04T09:11:01;98630.63;;;22.39;60.19
55604;BME280;41468;48.838;9.330;2022-07-04T09:13:31;98628.94;;;22.42;58.90
55604;BME280;41468;48.838;9.330;2022-07-04T09:16:01;98641.09;;;22.48;59.03
55604;BME280;41468;48.838;9.330;2022-07-04T09:18:33;98639.28;;;22.67;58.18
55604;BME280;41468;48.838;9.330;2022-07-04T09:21:05;98633.38;;;22.77;56.22
55604;BME280;41468;48.838;9.330;2022-07-04T09:23:36;98639.75;;;22.78;57.02
55604;BME280;41468;48.838;9.330;2022-07-04T09:26:16;98637.75;;;22.78;57.61
55604;BME280;41468;48.838;9.330;2022-07-04T09:28:51;98649.78;;;22.75;57.07
55604;BME280;41468;48.838;9.330;2022-07-04T09:31:25;98642.69;;;22.96;56.96
55604;BME280;41468;48.838;9.330;2022-07-04T09:33:56;98640.72;;;23.32;55.02
55604;BME280;41468;48.838;9.330;2022-07-04T09:36:28;98633.72;;;23.49;54.94
55604;BME280;41468;48.838;9.330;2022-07-04T09:39:05;98641.91;;;23.65;56.20
55604;BME280;41468;48.838;9.330;2022-07-04T09:41:55;98642.44;;;24.04;54.89
55604;BME280;41468;48.838;9.330;2022-07-04T09:44:26;98644.19;;;24.11;54.18
55604;BME280;41468;48.838;9.330;2022-07-04T09:46:57;98647.25;;;24.26;54.16
55604;BME280;41468;48.838;9.330;2022-07-04T09:49:26;98640.31;;;24.49;53.87
55604;BME280;41468;48.838;9.330;2022-07-04T09:51:56;98644.09;;;24.55;52.78
55604;BME280;41468;48.838;9.330;2022-07-04T09:54:27;98651.50;;;24.49;51.46
55604;BME280;41468;48.838;9.330;2022-07-04T09:57:03;98646.88;;;24.55;53.68
55604;BME280;41468;48.838;9.330;2022-07-04T09:59:33;98651.13;;;24.69;52.39
55604;BME280;41468;48.838;9.330;2022-07-04T10:02:07;98655.31;;;24.73;52.19
55604;BME280;41468;48.838;9.330;2022-07-04T10:04:46;98647.47;;;24.99;49.58
55604;BME280;41468;48.838;9.330;2022-07-04T10:07:32;98654.78;;;25.25;50.11
55604;BME280;41468;48.838;9.330;2022-07-04T10:10:24;98650.13;;;25.40;48.30
55604;BME280;41468;48.838;9.330;2022-07-04T10:12:59;98649.06;;;25.56;48.52
55604;BME280;41468;48.838;9.330;2022-07-04T10:15:30;98642.66;;;25.74;48.26
55604;BME280;41468;48.838;9.330;2022-07-04T10:18:00;98645.56;;;25.98;46.91
55604;BME280;41468;48.838;9.330;2022-07-04T10:20:30;98649.59;;;25.97;46.19
55604;BME280;41468;48.838;9.330;2022-07-04T10:23:00;98666.78;;;25.62;46.16
55604;BME280;41468;48.838;9.330;2022-07-04T10:25:30;98665.84;;;25.47;46.02
55604;BME280;41468;48.838;9.330;2022-07-04T10:28:02;98661.16;;;25.34;45.54
55604;BME280;41468;48.838;9.330;2022-07-04T10:30:34;98655.13;;;25.54;45.95
55604;BME280;41468;48.838;9.330;2022-07-04T10:33:07;98653.69;;;25.77;45.46
55604;BME280;41468;48.838;9.330;2022-07-04T10:35:49;98652.69;;;26.08;46.25
55604;BME280;41468;48.838;9.330;2022-07-04T10:38:21;98646.53;;;26.37;46.70
55604;BME280;41468;48.838;9.330;2022-07-04T10:40:52;98647.06;;;26.60;46.67
55604;BME280;41468;48.838;9.330;2022-07-04T10:46:43;98639.72;;;26.62;44.27
55604;BME280;41468;48.838;9.330;2022-07-04T10:49:22;98630.94;;;26.69;45.17
55604;BME280;41468;48.838;9.330;2022-07-04T10:51:55;98646.28;;;26.92;45.15
55604;BME280;41468;48.838;9.330;2022-07-04T10:54:29;98641.88;;;26.67;44.26
55604;BME280;41468;48.838;9.330;2022-07-04T10:57:09;98634.94;;;26.77;44.69
55604;BME280;41468;48.838;9.330;2022-07-04T10:59:40;98650.50;;;26.88;45.17
55604;BME280;41468;48.838;9.330;2022-07-04T11:02:29;98646.19;;;27.02;44.22
55604;BME280;41468;48.838;9.330;2022-07-04T11:05:02;98643.66;;;26.22;43.66
55604;BME280;41468;48.838;9.330;2022-07-04T11:07:55;98636.69;;;26.42;45.57
55604;BME280;41468;48.838;9.330;2022-07-04T11:10:25;98631.66;;;26.79;45.68
55604;BME280;41468;48.838;9.330;2022-07-04T11:13:25;98631.16;;;26.90;43.91
55604;BME280;41468;48.838;9.330;2022-07-04T11:16:05;98631.91;;;27.14;44.47
55604;BME280;41468;48.838;9.330;2022-07-04T11:18:43;98630.22;;;27.32;44.08
55604;BME280;41468;48.838;9.330;2022-07-04T11:21:18;98627.41;;;27.32;44.20
55604;BME280;41468;48.838;9.330;2022-07-04T11:23:52;98625.44;;;27.62;43.40
55604;BME280;41468;48.838;9.330;2022-07-04T11:26:24;98622.75;;;27.29;43.88
55604;BME280;41468;48.838;9.330;2022-07-04T11:28:54;98612.94;;;27.48;44.28
55604;BME280;41468;48.838;9.330;2022-07-04T11:31:37;98610.75;;;27.28;43.51
55604;BME280;41468;48.838;9.330;2022-07-04T11:34:10;98603.94;;;27.74;43.88
55604;BME280;41468;48.838;9.330;2022-07-04T11:36:41;98597.22;;;27.41;43.09
55604;BME280;41468;48.838;9.330;2022-07-04T11:39:12;98599.00;;;27.69;43.03
55604;BME280;41468;48.838;9.330;2022-07-04T11:41:48;98599.28;;;27.71;43.73
55604;BME280;41468;48.838;9.330;2022-07-04T11:44:31;98584.84;;;27.48;42.19
55604;BME280;41468;48.838;9.330;2022-07-04T11:47:15;98584.84;;;27.78;43.46
55604;BME280;41468;48.838;9.330;2022-07-04T11:49:50;98588.16;;;27.61;42.67
55604;BME280;41468;48.838;9.330;2022-07-04T11:52:22;98578.56;;;27.53;43.51
55604;BME280;41468;48.838;9.330;2022-07-04T11:55:13;98581.06;;;27.81;43.45
55604;BME280;41468;48.838;9.330;2022-07-04T11:57:45;98585.44;;;27.67;43.05
55604;BME280;41468;48.838;9.330;2022-07-04T12:00:18;98569.34;;;27.82;42.74
55604;BME280;41468;48.838;9.330;2022-07-04T12:02:48;98565.84;;;28.02;43.73
55604;BME280;41468;48.838;9.330;2022-07-04T12:05:21;98573.59;;;27.93;42.43
55604;BME280;41468;48.838;9.330;2022-07-04T12:07:51;98561.94;;;28.15;42.54
55604;BME280;41468;48.838;9.330;2022-07-04T12:10:41;98568.44;;;28.21;43.09
55604;BME280;41468;48.838;9.330;2022-07-04T12:13:14;98572.31;;;28.23;42.77
55604;BME280;41468;48.838;9.330;2022-07-04T12:15:46;98566.69;;;28.23;42.22
55604;BME280;41468;48.838;9.330;2022-07-04T12:18:17;98564.03;;;28.35;42.51
55604;BME280;41468;48.838;9.330;2022-07-04T12:20:51;98554.88;;;28.19;42.22
55604;BME280;41468;48.838;9.330;2022-07-04T12:23:21;98552.03;;;28.34;42.33
55604;BME280;41468;48.838;9.330;2022-07-04T12:25:53;98551.53;;;27.56;40.69
55604;BME280;41468;48.838;9.330;2022-07-04T12:28:22;98548.06;;;27.07;41.78
55604;BME280;41468;48.838;9.330;2022-07-04T12:30:54;98531.94;;;26.54;42.35
55604;BME280;41468;48.838;9.330;2022-07-04T12:33:25;98523.03;;;26.80;44.93
55604;BME280;41468;48.838;9.330;2022-07-04T12:35:58;98521.88;;;27.25;43.48
55604;BME280;41468;48.838;9.330;2022-07-04T12:38:35;98521.63;;;26.84;43.70
55604;BME280;41468;48.838;9.330;2022-07-04T12:41:07;98519.13;;;26.62;43.68
55604;BME280;41468;48.838;9.330;2022-07-04T12:43:46;98518.38;;;27.15;43.95
55604;BME280;41468;48.838;9.330;2022-07-04T12:46:27;98508.53;;;27.35;43.27
55604;BME280;41468;48.838;9.330;2022-07-04T12:48:58;98513.72;;;27.42;43.32
55604;BME280;41468;48.838;9.330;2022-07-04T12:51:34;98507.25;;;27.66;41.56
55604;BME280;41468;48.838;9.330;2022-07-04T12:54:07;98497.91;;;27.89;41.25
55604;BME280;41468;48.838;9.330;2022-07-04T12:56:39;98498.28;;;27.97;42.06
55604;BME280;41468;48.838;9.330;2022-07-04T12:59:12;98498.97;;;28.06;40.63
55604;BME280;41468;48.838;9.330;2022-07-04T13:01:43;98491.03;;;27.90;41.53
55604;BME280;41468;48.838;9.330;2022-07-04T13:04:14;98492.16;;;27.98;42.50
55604;BME280;41468;48.838;9.330;2022-07-04T13:06:46;98486.28;;;27.96;42.30
55604;BME280;41468;48.838;9.330;2022-07-04T13:09:16;98478.47;;;28.21;43.12
55604;BME280;41468;48.838;9.330;2022-07-04T13:11:46;98481.00;;;28.39;41.68
55604;BME280;41468;48.838;9.330;2022-07-04T13:14:28;98471.66;;;28.48;41.68
55604;BME280;41468;48.838;9.330;2022-07-04T13:16:58;98470.16;;;28.52;41.03
55604;BME280;41468;48.838;9.330;2022-07-04T13:19:29;98477.78;;;28.67;41.18
55604;BME280;41468;48.838;9.330;2022-07-04T13:22:01;98470.38;;;28.49;42.33
55604;BME280;41468;48.838;9.330;2022-07-04T13:24:31;98472.69;;;28.71;41.84
55604;BME280;41468;48.838;9.330;2022-07-04T13:27:00;98467.34;;;28.73;41.66
55604;BME280;41468;48.838;9.330;2022-07-04T13:29:30;98470.03;;;28.62;41.00